Time;durP1;ratioP1;P1;durP2;ratioP2;P2;SDS_P1;SDS_P2;PMS_P1;PMS_P2;Temp;Humidity;BMP_temperature;BMP_pressure;BME280_temperature;BME280_humidity;BME280_pressure;Samples;Min_cycle;Max_cycle;Signal;HPM_P1;HPM_P2
2022/12/10 00:01:49;;;;;;;58.78;22.95;;;0.90;99.90;;;;;;5047404;28;20173;-66
2022/12/10 00:04:15;;;;;;;62.42;23.48;;;0.90;99.90;;;;;;5043118;28;20297;-67
2022/12/10 00:06:42;;;;;;;60.65;23.33;;;0.90;99.90;;;;;;5046689;28;20498;-67
2022/12/10 00:09:11;;;;;;;60.67;23.85;;;0.90;99.90;;;;;;5049024;28;20105;-68
2022/12/10 00:11:38;;;;;;;58.75;22.13;;;0.90;99.90;;;;;;5043068;28;20584;-67
2022/12/10 00:14:03;;;;;;;63.13;23.15;;;0.90;99.90;;;;;;5028535;28;20214;-67
2022/12/10 00:16:30;;;;;;;60.72;22.85;;;0.90;99.90;;;;;;5042062;28;20066;-67
2022/12/10 00:18:56;;;;;;;61.50;22.40;;;0.80;99.90;;;;;;5028654;28;20033;-64
2022/12/10 00:21:25;;;;;;;58.25;21.98;;;0.80;99.90;;;;;;5038520;28;20028;-67
2022/12/10 00:23:51;;;;;;;55.28;21.42;;;0.70;99.90;;;;;;5045353;28;20198;-66
2022/12/10 00:26:40;;;;;;;56.97;21.58;;;0.70;99.90;;;;;;5031983;28;20029;-67
2022/12/10 00:29:09;;;;;;;57.45;22.10;;;0.80;99.90;;;;;;5033393;28;20083;-67
2022/12/10 00:31:36;;;;;;;63.30;23.30;;;0.80;99.90;;;;;;5030066;28;20029;-67
2022/12/10 00:34:05;;;;;;;54.13;21.55;;;0.80;99.90;;;;;;5028958;28;20033;-67
2022/12/10 00:36:42;;;;;;;58.08;22.55;;;0.80;99.90;;;;;;5036444;28;20032;-66
2022/12/10 00:39:09;;;;;;;55.60;20.60;;;0.80;99.90;;;;;;5047294;28;20040;-66
2022/12/10 00:41:35;;;;;;;48.45;19.88;;;0.80;99.90;;;;;;5045185;28;20119;-67
2022/12/10 00:44:01;;;;;;;52.22;20.13;;;0.80;99.90;;;;;;5041191;28;20025;-66
2022/12/10 00:46:27;;;;;;;61.03;20.95;;;0.80;99.90;;;;;;5040288;28;20021;-67
2022/12/10 00:48:53;;;;;;;53.67;21.45;;;0.80;99.90;;;;;;5043121;28;20893;-66
2022/12/10 00:51:21;;;;;;;51.92;21.02;;;0.90;99.90;;;;;;5047207;28;20116;-66
2022/12/10 00:53:48;;;;;;;51.47;19.70;;;0.90;99.90;;;;;;5047057;28;20088;-68
2022/12/10 00:56:16;;;;;;;57.97;20.77;;;0.90;99.90;;;;;;5046577;28;20116;-68
2022/12/10 00:58:42;;;;;;;53.38;20.60;;;0.80;99.90;;;;;;5035202;28;20563;-66
2022/12/10 01:01:13;;;;;;;51.72;19.83;;;0.90;99.90;;;;;;5045800;28;20060;-66
2022/12/10 01:03:39;;;;;;;51.92;20.40;;;0.90;99.90;;;;;;5035107;28;20036;-67
2022/12/10 01:06:15;;;;;;;55.28;20.80;;;0.90;99.90;;;;;;5041052;28;20029;-65
2022/12/10 01:08:42;;;;;;;56.40;20.98;;;0.90;99.90;;;;;;5046968;28;20048;-67
2022/12/10 01:11:09;;;;;;;56.88;21.58;;;0.90;99.90;;;;;;5045388;28;20037;-67
2022/12/10 01:13:35;;;;;;;51.03;20.08;;;0.90;99.90;;;;;;5034382;28;20029;-67
2022/12/10 01:16:03;;;;;;;60.10;20.80;;;0.80;99.90;;;;;;5044135;28;20095;-67
2022/12/10 01:18:29;;;;;;;49.85;19.02;;;0.80;99.90;;;;;;5047526;28;20033;-67
2022/12/10 01:20:54;;;;;;;50.38;19.17;;;0.80;99.90;;;;;;5035621;28;20390;-66
2022/12/10 01:23:20;;;;;;;57.22;20.08;;;0.80;99.90;;;;;;5024771;28;20414;-65
2022/12/10 01:25:46;;;;;;;51.22;20.65;;;0.80;99.90;;;;;;5031624;28;20041;-68
2022/12/10 01:28:11;;;;;;;53.80;20.77;;;0.80;99.90;;;;;;5044394;28;20051;-67
2022/12/10 01:30:38;;;;;;;49.28;20.15;;;0.80;99.90;;;;;;5027199;28;20421;-66
2022/12/10 01:33:04;;;;;;;50.88;19.98;;;0.90;99.90;;;;;;5038392;28;20051;-66
2022/12/10 01:35:29;;;;;;;50.03;19.67;;;0.80;99.90;;;;;;5033266;28;20031;-67
2022/12/10 01:37:55;;;;;;;54.42;20.75;;;0.90;99.90;;;;;;5034295;28;20029;-67
2022/12/10 01:40:20;;;;;;;50.10;19.88;;;0.90;99.90;;;;;;5040845;28;20029;-67
2022/12/10 01:42:46;;;;;;;54.33;20.80;;;0.80;99.90;;;;;;5032694;28;20087;-66
2022/12/10 01:45:13;;;;;;;54.13;20.35;;;0.90;99.90;;;;;;5031410;28;20025;-67
2022/12/10 01:47:39;;;;;;;52.85;19.80;;;0.80;99.90;;;;;;5032663;28;20465;-67
2022/12/10 01:50:06;;;;;;;50.65;19.73;;;0.80;99.90;;;;;;5038901;28;20078;-67
2022/12/10 01:52:32;;;;;;;54.20;20.13;;;0.80;99.90;;;;;;5042121;28;20033;-67
2022/12/10 01:54:58;;;;;;;50.42;19.67;;;0.80;99.90;;;;;;5039963;28;20037;-67
2022/12/10 01:57:26;;;;;;;48.58;19.73;;;0.80;99.90;;;;;;5043965;28;20071;-66
2022/12/10 01:59:56;;;;;;;56.63;20.50;;;0.80;99.90;;;;;;5029498;28;20025;-68
2022/12/10 02:02:51;;;;;;;55.28;21.80;;;0.80;99.90;;;;;;5042988;28;20036;-66
2022/12/10 02:05:52;;;;;;;50.67;19.35;;;0.80;99.90;;;;;;5043467;28;20481;-67
2022/12/10 02:08:46;;;;;;;52.33;20.17;;;0.80;99.90;;;;;;5041427;28;20029;-67
2022/12/10 02:11:17;;;;;;;53.65;20.58;;;0.80;99.90;;;;;;5035089;28;20037;-67
2022/12/10 02:14:00;;;;;;;51.90;20.10;;;0.80;99.90;;;;;;5041204;28;20152;-67
2022/12/10 02:16:29;;;;;;;49.50;20.38;;;0.90;99.90;;;;;;5044106;28;20120;-67
2022/12/10 02:19:04;;;;;;;53.38;19.85;;;0.90;99.90;;;;;;5044878;28;20507;-66
2022/12/10 02:21:37;;;;;;;45.85;18.52;;;0.90;99.90;;;;;;5039755;28;20040;-65
2022/12/10 02:24:13;;;;;;;51.03;19.73;;;0.90;99.90;;;;;;5041417;28;20052;-67
2022/12/10 02:27:00;;;;;;;50.92;20.48;;;0.90;99.90;;;;;;5044778;28;20428;-67
2022/12/10 02:29:28;;;;;;;52.80;20.02;;;0.90;99.90;;;;;;5040668;28;20048;-67
2022/12/10 02:32:02;;;;;;;53.60;20.30;;;0.90;99.90;;;;;;5026442;28;20033;-68
2022/12/10 02:34:31;;;;;;;52.83;20.27;;;0.90;99.90;;;;;;5024605;28;20025;-67
2022/12/10 02:37:00;;;;;;;50.60;19.07;;;0.80;99.90;;;;;;5036834;28;20116;-67
2022/12/10 02:39:30;;;;;;;49.80;19.42;;;0.80;99.90;;;;;;5044020;28;20095;-66
2022/12/10 02:41:59;;;;;;;50.05;20.52;;;0.90;99.90;;;;;;5037068;28;20071;-66
2022/12/10 02:44:27;;;;;;;48.92;18.88;;;0.80;99.90;;;;;;5044638;28;20079;-68
2022/12/10 02:46:56;;;;;;;50.95;19.10;;;0.80;99.90;;;;;;5042555;28;20032;-67
2022/12/10 02:49:23;;;;;;;52.10;20.17;;;0.90;99.90;;;;;;5032134;28;20045;-67
2022/12/10 02:51:49;;;;;;;47.92;19.50;;;0.80;99.90;;;;;;5041556;28;20053;-67
2022/12/10 02:54:43;;;;;;;50.35;19.17;;;0.80;99.90;;;;;;5037353;28;20060;-68
2022/12/10 02:57:42;;;;;;;56.88;21.00;;;0.90;99.90;;;;;;5018504;28;20529;-67
2022/12/10 03:00:18;;;;;;;55.53;20.13;;;0.90;99.90;;;;;;5028282;28;20036;-67
2022/12/10 03:02:43;;;;;;;52.40;19.20;;;0.90;99.90;;;;;;5033210;28;20095;-68
2022/12/10 03:05:31;;;;;;;50.88;19.90;;;0.90;99.90;;;;;;5027418;28;20033;-67
2022/12/10 03:08:12;;;;;;;51.17;20.05;;;0.90;99.90;;;;;;5020008;28;20075;-68
2022/12/10 03:11:04;;;;;;;52.72;20.60;;;0.90;99.90;;;;;;5048579;28;20058;-66
2022/12/10 03:13:38;;;;;;;48.65;19.80;;;0.80;99.90;;;;;;5038100;28;20083;-66
2022/12/10 03:16:05;;;;;;;53.47;20.50;;;0.80;99.90;;;;;;5047823;28;20025;-67
2022/12/10 03:18:34;;;;;;;51.42;19.73;;;0.70;99.90;;;;;;5044879;28;20037;-66
2022/12/10 03:21:05;;;;;;;49.28;19.60;;;0.70;99.90;;;;;;5042141;28;20025;-66
2022/12/10 03:23:32;;;;;;;;;;;0.70;99.90;;;;;;5047231;28;20481;-66
2022/12/10 03:25:59;;;;;;;55.95;19.35;;;0.70;99.90;;;;;;5049678;28;20348;-67
2022/12/10 03:28:26;;;;;;;54.38;20.42;;;0.70;99.90;;;;;;5047107;28;20521;-66
2022/12/10 03:30:54;;;;;;;53.53;20.23;;;0.60;99.90;;;;;;5044846;28;20371;-67
2022/12/10 03:33:20;;;;;;;49.00;19.38;;;0.60;99.90;;;;;;5044022;28;20042;-66
2022/12/10 03:35:46;;;;;;;51.88;19.98;;;0.50;99.90;;;;;;5046643;28;20033;-66
2022/12/10 03:38:13;;;;;;;54.92;20.95;;;0.50;99.90;;;;;;5044308;28;20033;-67
2022/12/10 03:40:39;;;;;;;51.80;20.15;;;0.50;99.90;;;;;;5039603;28;20037;-66
2022/12/10 03:43:05;;;;;;;53.88;20.45;;;0.50;99.90;;;;;;5034930;28;20025;-66
2022/12/10 03:45:30;;;;;;;49.60;18.50;;;0.40;99.90;;;;;;5046999;28;20104;-66
2022/12/10 03:47:56;;;;;;;55.47;21.20;;;0.40;99.90;;;;;;5047158;28;20041;-68
2022/12/10 03:50:21;;;;;;;50.83;19.77;;;0.40;99.90;;;;;;5046509;28;20108;-67
2022/12/10 03:52:47;;;;;;;48.67;20.27;;;0.40;99.90;;;;;;5044451;28;20036;-67
2022/12/10 03:55:13;;;;;;;58.55;22.40;;;0.50;99.90;;;;;;5044303;28;20438;-66
2022/12/10 03:57:38;;;;;;;54.70;22.20;;;0.50;99.90;;;;;;5042957;28;20035;-67
2022/12/10 04:00:05;;;;;;;54.85;20.85;;;0.50;99.90;;;;;;5035940;28;20049;-68
2022/12/10 04:02:31;;;;;;;56.33;21.23;;;0.50;99.90;;;;;;5036054;28;20398;-66
2022/12/10 04:04:56;;;;;;;50.90;18.98;;;0.40;99.90;;;;;;5047077;28;20112;-68
2022/12/10 04:07:22;;;;;;;51.72;19.30;;;0.40;99.90;;;;;;5036871;28;20032;-67
2022/12/10 04:09:47;;;;;;;51.13;19.95;;;0.40;99.90;;;;;;5034062;28;20541;-67
2022/12/10 04:12:13;;;;;;;56.97;21.30;;;0.50;99.90;;;;;;5043554;28;20028;-67
2022/12/10 04:17:24;;;;;;;54.55;20.70;;;0.40;99.90;;;;;;5045430;28;20088;-67
2022/12/10 04:19:49;;;;;;;53.53;21.00;;;0.40;99.90;;;;;;5048388;28;20029;-66
2022/12/10 04:27:43;;;;;;;55.60;19.67;;;0.30;99.90;;;;;;5034856;28;20044;-67
2022/12/10 04:30:11;;;;;;;54.83;20.58;;;0.30;99.90;;;;;;5034271;28;20037;-65
2022/12/10 04:32:37;;;;;;;54.95;21.35;;;0.30;99.90;;;;;;5030207;28;20029;-67
2022/12/10 04:35:04;;;;;;;56.80;21.10;;;0.30;99.90;;;;;;5028528;28;20033;-68
2022/12/10 04:37:30;;;;;;;55.63;20.48;;;0.30;99.90;;;;;;5046792;28;20025;-68
2022/12/10 04:39:56;;;;;;;53.85;21.70;;;0.30;99.90;;;;;;5040714;28;20048;-66
2022/12/10 04:42:22;;;;;;;58.00;21.42;;;0.30;99.90;;;;;;5043685;28;20025;-67
2022/12/10 04:44:48;;;;;;;54.55;20.92;;;0.20;99.90;;;;;;5041104;28;20037;-66
2022/12/10 04:47:14;;;;;;;52.00;20.90;;;0.20;99.90;;;;;;5048826;28;20393;-66
2022/12/10 04:49:40;;;;;;;63.88;22.48;;;0.30;99.90;;;;;;5048181;28;20044;-67
2022/12/10 04:52:07;;;;;;;59.42;22.75;;;0.30;99.90;;;;;;5046191;28;20044;-67
2022/12/10 04:54:33;;;;;;;60.20;22.20;;;0.30;99.90;;;;;;5040602;28;20060;-66
2022/12/10 04:56:59;;;;;;;63.33;24.38;;;0.40;99.90;;;;;;5045899;28;20405;-68
2022/12/10 04:59:25;;;;;;;59.83;22.98;;;0.40;99.90;;;;;;5032150;28;20030;-67
2022/12/10 05:01:51;;;;;;;56.80;21.92;;;0.40;99.90;;;;;;5034453;28;20036;-66
2022/12/10 05:04:18;;;;;;;62.10;21.60;;;0.30;99.90;;;;;;5045417;28;20037;-67
2022/12/10 05:06:45;;;;;;;64.93;24.90;;;0.30;99.90;;;;;;5045558;28;20385;-66
2022/12/10 05:09:12;;;;;;;64.22;23.63;;;0.30;99.90;;;;;;5037107;28;20478;-66
2022/12/10 05:11:39;;;;;;;69.35;27.25;;;0.30;99.90;;;;;;5035169;28;20036;-67
2022/12/10 05:14:05;;;;;;;71.40;25.67;;;0.40;99.90;;;;;;5030745;28;20036;-67
2022/12/10 05:16:32;;;;;;;63.58;23.80;;;0.40;99.90;;;;;;5028316;28;20510;-66
2022/12/10 05:18:59;;;;;;;85.60;33.10;;;0.40;99.90;;;;;;5030683;28;20025;-67
2022/12/10 05:24:11;;;;;;;58.80;22.02;;;0.40;99.90;;;;;;5033935;28;20187;-66
2022/12/10 05:26:37;;;;;;;58.22;22.17;;;0.40;99.90;;;;;;5029052;28;20112;-66
2022/12/10 05:29:03;;;;;;;57.15;22.05;;;0.50;99.90;;;;;;5024709;28;20037;-67
2022/12/10 05:31:29;;;;;;;58.13;21.00;;;0.50;99.90;;;;;;5037662;28;20036;-67
2022/12/10 05:33:57;;;;;;;58.00;20.38;;;0.50;99.90;;;;;;5029821;28;20029;-67
2022/12/10 05:36:25;;;;;;;61.92;23.20;;;0.50;99.90;;;;;;5029484;28;20104;-67
2022/12/10 05:38:51;;;;;;;59.92;21.80;;;0.50;99.90;;;;;;5048828;28;20487;-66
2022/12/10 05:41:22;;;;;;;50.88;19.77;;;0.50;99.90;;;;;;5042558;28;20037;-67
2022/12/10 05:43:48;;;;;;;54.45;20.83;;;0.50;99.90;;;;;;5048903;28;20037;-68
2022/12/10 05:46:21;;;;;;;52.85;20.88;;;0.50;99.90;;;;;;5041184;28;20029;-66
2022/12/10 05:48:47;;;;;;;56.17;21.10;;;0.50;99.90;;;;;;5047321;28;20049;-66
2022/12/10 05:51:16;;;;;;;53.47;21.45;;;0.50;99.90;;;;;;5044944;28;20031;-67
2022/12/10 05:53:42;;;;;;;53.70;20.33;;;0.50;99.90;;;;;;5027309;28;20497;-65
2022/12/10 05:56:13;;;;;;;59.60;21.42;;;0.60;99.90;;;;;;5028237;28;20033;-66
2022/12/10 05:58:40;;;;;;;51.25;20.23;;;0.60;99.90;;;;;;5027227;28;20056;-66
2022/12/10 06:01:12;;;;;;;63.25;21.35;;;0.50;99.90;;;;;;5030395;28;20041;-67
2022/12/10 06:03:38;;;;;;;59.53;21.60;;;0.50;99.90;;;;;;5027880;28;20631;-68
2022/12/10 06:06:05;;;;;;;58.70;21.33;;;0.50;99.90;;;;;;5028871;28;20064;-68
2022/12/10 06:08:31;;;;;;;51.72;19.92;;;0.50;99.90;;;;;;5027683;28;20033;-66
2022/12/10 06:11:04;;;;;;;54.65;20.80;;;0.50;99.90;;;;;;5026768;28;20488;-67
2022/12/10 06:13:30;;;;;;;55.28;21.40;;;0.60;99.90;;;;;;5032982;28;20104;-66
2022/12/10 06:15:56;;;;;;;56.65;21.58;;;0.60;99.90;;;;;;5036403;28;20504;-68
2022/12/10 06:18:21;;;;;;;59.22;22.67;;;0.60;99.90;;;;;;5033735;28;20537;-66
2022/12/10 06:20:47;;;;;;;59.33;21.67;;;0.60;99.90;;;;;;5045528;28;20385;-68
2022/12/10 06:23:13;;;;;;;56.00;21.88;;;0.60;99.90;;;;;;5026403;28;20049;-67
2022/12/10 06:25:39;;;;;;;58.97;19.42;;;0.60;99.90;;;;;;5030412;28;20045;-66
2022/12/10 06:28:06;;;;;;;52.35;20.02;;;0.60;99.90;;;;;;5046084;28;20516;-68
2022/12/10 06:30:32;;;;;;;52.20;20.58;;;0.60;99.90;;;;;;5048231;28;20090;-67
2022/12/10 06:32:58;;;;;;;57.58;22.20;;;0.60;99.90;;;;;;5033682;28;20040;-67
2022/12/10 06:35:23;;;;;;;49.10;19.80;;;0.60;99.90;;;;;;5047402;28;20025;-66
2022/12/10 06:37:50;;;;;;;53.17;20.98;;;0.60;99.90;;;;;;5039535;28;20087;-65
2022/12/10 06:40:16;;;;;;;56.45;21.60;;;0.60;99.90;;;;;;5030758;28;20091;-67
2022/12/10 06:42:42;;;;;;;55.13;21.75;;;0.60;99.90;;;;;;5031161;28;20037;-67
2022/12/10 06:45:08;;;;;;;50.67;19.95;;;0.60;99.90;;;;;;5030634;28;20061;-68
2022/12/10 06:47:33;;;;;;;58.95;22.55;;;0.60;99.90;;;;;;5031753;28;20489;-67
2022/12/10 06:49:59;;;;;;;58.30;21.98;;;0.60;99.90;;;;;;5029634;28;20127;-67
2022/12/10 06:52:25;;;;;;;56.70;21.95;;;0.70;99.90;;;;;;5049886;28;20067;-66
2022/12/10 06:54:51;;;;;;;57.70;21.95;;;0.60;99.90;;;;;;5037930;28;20137;-65
2022/12/10 06:57:17;;;;;;;56.78;22.45;;;0.60;99.90;;;;;;5046428;28;20116;-66
2022/12/10 06:59:42;;;;;;;56.28;21.33;;;0.60;99.90;;;;;;5031484;28;20030;-67
2022/12/10 07:02:09;;;;;;;53.97;21.73;;;0.60;99.90;;;;;;5030817;28;20036;-68
2022/12/10 07:04:35;;;;;;;64.65;21.67;;;0.50;99.90;;;;;;5029065;28;20713;-68
2022/12/10 07:07:01;;;;;;;52.25;21.63;;;0.60;99.90;;;;;;5050562;28;20048;-65
2022/12/10 07:09:26;;;;;;;52.50;21.58;;;0.60;99.90;;;;;;5033156;28;20034;-67
2022/12/10 07:11:52;;;;;;;53.17;20.90;;;0.60;99.90;;;;;;5025484;28;20032;-67
2022/12/10 07:14:18;;;;;;;55.25;21.05;;;0.60;99.90;;;;;;5029038;28;20033;-64
2022/12/10 07:16:43;;;;;;;58.42;21.88;;;0.50;99.90;;;;;;5045930;28;20394;-66
2022/12/10 07:19:11;;;;;;;56.85;20.70;;;0.50;99.90;;;;;;5031934;28;20033;-67
2022/12/10 07:21:39;;;;;;;53.42;21.25;;;0.50;99.90;;;;;;5029780;28;20112;-65
2022/12/10 07:24:12;;;;;;;52.35;20.85;;;0.50;99.90;;;;;;5026187;28;20057;-65
2022/12/10 07:26:40;;;;;;;53.95;21.20;;;0.50;99.90;;;;;;5034163;28;20114;-67
2022/12/10 07:29:09;;;;;;;57.42;21.40;;;0.60;99.90;;;;;;5030628;28;20052;-67
2022/12/10 07:31:36;;;;;;;59.45;21.85;;;0.60;99.90;;;;;;5031221;28;20482;-67
2022/12/10 07:34:02;;;;;;;60.75;23.75;;;0.60;99.90;;;;;;5029224;28;20521;-67
2022/12/10 07:36:28;;;;;;;57.70;22.13;;;0.60;99.90;;;;;;5030644;28;20033;-67
2022/12/10 07:38:54;;;;;;;58.35;21.27;;;0.60;99.90;;;;;;5032882;28;20037;-65
2022/12/10 07:41:20;;;;;;;60.55;22.35;;;0.70;99.90;;;;;;5028816;28;20049;-66
2022/12/10 07:43:47;;;;;;;55.88;21.77;;;0.70;99.90;;;;;;5041212;28;20124;-66
2022/12/10 07:46:20;;;;;;;53.00;20.30;;;0.70;99.90;;;;;;5028275;28;20622;-69
2022/12/10 07:48:46;;;;;;;51.65;19.58;;;0.60;99.90;;;;;;5041254;28;20037;-67
2022/12/10 07:51:13;;;;;;;53.30;20.00;;;0.70;99.90;;;;;;5046402;28;20056;-68
2022/12/10 07:53:39;;;;;;;55.13;20.42;;;0.70;99.90;;;;;;5049471;28;20031;-66
2022/12/10 07:56:05;;;;;;;50.25;19.30;;;0.70;99.90;;;;;;5045334;28;20034;-67
2022/12/10 07:58:32;;;;;;;53.38;20.25;;;0.70;99.90;;;;;;5044632;28;20036;-66
2022/12/10 08:00:57;;;;;;;52.20;20.88;;;0.70;99.90;;;;;;5045955;28;20041;-67
2022/12/10 08:03:23;;;;;;;53.35;20.83;;;0.70;99.90;;;;;;5034602;28;20030;-66
2022/12/10 08:06:00;;;;;;;58.80;20.23;;;0.70;99.90;;;;;;5029309;28;20029;-65
2022/12/10 08:08:25;;;;;;;53.90;20.40;;;0.70;99.90;;;;;;5030652;28;20117;-66
2022/12/10 08:10:51;;;;;;;53.83;20.95;;;0.70;99.90;;;;;;5041104;28;20524;-66
2022/12/10 08:13:16;;;;;;;50.47;20.38;;;0.60;99.90;;;;;;5041536;28;20473;-66
2022/12/10 08:15:42;;;;;;;55.13;20.45;;;0.60;99.90;;;;;;5048520;28;20035;-67
2022/12/10 08:18:07;;;;;;;54.63;21.00;;;0.70;99.90;;;;;;5038782;28;20077;-65
2022/12/10 08:20:34;;;;;;;51.63;20.50;;;0.70;99.90;;;;;;5031546;28;20603;-64
2022/12/10 08:23:00;;;;;;;55.58;21.73;;;0.70;99.90;;;;;;5028357;28;20045;-64
2022/12/10 08:25:26;;;;;;;60.85;20.98;;;0.70;99.90;;;;;;5028710;28;20052;-64
2022/12/10 08:27:52;;;;;;;57.55;22.70;;;0.70;99.90;;;;;;5028779;28;20034;-65
2022/12/10 08:30:17;;;;;;;62.72;23.23;;;0.70;99.90;;;;;;5049085;28;20033;-65
2022/12/10 08:32:43;;;;;;;71.82;26.55;;;0.70;99.90;;;;;;5042932;28;20478;-64
2022/12/10 08:35:09;;;;;;;65.50;24.33;;;0.80;99.90;;;;;;5035063;28;20386;-66
2022/12/10 08:37:34;;;;;;;65.00;23.40;;;0.80;99.90;;;;;;5037069;28;20687;-66
2022/12/10 08:40:00;;;;;;;57.53;22.38;;;0.80;99.90;;;;;;5034118;28;20517;-67
2022/12/10 08:42:25;;;;;;;60.25;22.98;;;0.90;99.90;;;;;;5026255;28;20080;-67
2022/12/10 08:44:51;;;;;;;61.78;24.10;;;0.90;99.90;;;;;;5026565;28;20037;-67
2022/12/10 08:47:17;;;;;;;64.47;24.67;;;0.90;99.90;;;;;;5031131;28;20576;-67
2022/12/10 08:49:42;;;;;;;62.67;25.30;;;0.90;99.90;;;;;;5024555;28;20489;-67
2022/12/10 08:52:08;;;;;;;62.78;25.85;;;0.90;99.90;;;;;;5030269;28;20028;-67
2022/12/10 08:54:34;;;;;;;64.10;25.75;;;0.90;99.90;;;;;;5029142;28;20029;-67
2022/12/10 08:56:59;;;;;;;60.42;24.15;;;0.80;99.90;;;;;;5029569;28;20471;-67
2022/12/10 08:59:25;;;;;;;67.40;26.60;;;0.70;99.90;;;;;;5027380;28;20057;-67
2022/12/10 09:01:53;;;;;;;63.85;23.98;;;0.70;99.90;;;;;;5033733;28;20045;-67
2022/12/10 09:04:19;;;;;;;64.43;26.25;;;0.80;99.90;;;;;;5025538;28;20030;-67
2022/12/10 09:06:45;;;;;;;63.40;23.48;;;0.80;99.90;;;;;;5025525;28;20649;-69
2022/12/10 09:09:10;;;;;;;61.17;23.02;;;0.80;99.90;;;;;;5026356;28;20390;-67
2022/12/10 09:11:36;;;;;;;55.95;22.60;;;0.90;99.90;;;;;;5025542;28;20112;-67
2022/12/10 09:14:02;;;;;;;63.58;23.48;;;0.90;99.90;;;;;;5029909;28;20037;-67
2022/12/10 09:16:33;;;;;;;60.90;23.05;;;1.00;99.90;;;;;;5039018;28;20151;-67
2022/12/10 09:19:00;;;;;;;57.40;22.85;;;1.00;99.90;;;;;;5048945;28;20060;-67
2022/12/10 09:21:26;;;;;;;60.25;23.38;;;1.00;99.90;;;;;;5048558;28;20032;-67
2022/12/10 09:23:52;;;;;;;57.83;22.88;;;1.10;99.90;;;;;;5049376;28;20064;-67
2022/12/10 09:26:19;;;;;;;57.30;22.38;;;1.10;99.90;;;;;;5049037;28;20067;-69
2022/12/10 09:28:46;;;;;;;64.15;25.00;;;1.10;99.90;;;;;;5049269;28;20170;-65
2022/12/10 09:31:13;;;;;;;61.67;23.17;;;1.10;99.90;;;;;;5036678;28;20043;-67
2022/12/10 09:33:40;;;;;;;69.70;25.95;;;1.00;99.90;;;;;;5028820;28;20025;-67
2022/12/10 09:36:07;;;;;;;83.50;31.15;;;1.10;99.90;;;;;;5028979;28;20032;-67
2022/12/10 09:38:38;;;;;;;63.60;25.40;;;1.00;99.90;;;;;;5028549;28;20111;-67
2022/12/10 09:41:30;;;;;;;66.18;24.70;;;1.10;99.90;;;;;;5029171;28;20041;-67
2022/12/10 09:44:15;;;;;;;68.70;24.23;;;1.20;99.90;;;;;;5028952;28;20112;-67
2022/12/10 09:46:53;;;;;;;54.00;20.83;;;1.30;99.90;;;;;;5023867;28;20029;-66
2022/12/10 09:49:47;;;;;;;58.88;22.45;;;1.30;99.90;;;;;;5047836;28;20532;-68
2022/12/10 09:52:16;;;;;;;52.58;20.90;;;1.30;99.90;;;;;;5046413;28;20043;-68
2022/12/10 09:54:56;;;;;;;53.60;20.98;;;1.40;99.90;;;;;;5048063;28;20025;-68
2022/12/10 09:57:51;;;;;;;56.55;21.52;;;1.50;99.90;;;;;;5040201;28;20049;-65
2022/12/10 10:00:38;;;;;;;55.88;21.35;;;1.60;99.90;;;;;;5016334;28;20037;-66
2022/12/10 10:03:04;;;;;;;54.47;21.00;;;1.60;99.90;;;;;;5034343;28;20042;-64
2022/12/10 10:05:34;;;;;;;55.53;20.83;;;1.60;99.90;;;;;;5015916;28;20026;-64
2022/12/10 10:08:05;;;;;;;57.60;21.77;;;1.70;99.90;;;;;;5028630;28;20037;-63
2022/12/10 10:10:38;;;;;;;53.83;20.85;;;1.70;99.90;;;;;;5034066;28;20047;-64
2022/12/10 10:13:26;;;;;;;48.95;19.65;;;1.60;99.90;;;;;;5042197;28;20032;-65
2022/12/10 10:15:52;;;;;;;52.78;20.63;;;1.70;99.90;;;;;;5028542;28;20064;-64
2022/12/10 10:18:34;;;;;;;43.70;18.67;;;1.70;99.90;;;;;;5037511;28;20028;-65
2022/12/10 10:21:02;;;;;;;57.05;20.02;;;1.70;99.90;;;;;;5046824;28;20029;-64
2022/12/10 10:23:27;;;;;;;54.00;20.17;;;1.80;99.90;;;;;;5041080;28;20037;-64
2022/12/10 10:25:53;;;;;;;51.75;20.65;;;1.80;99.90;;;;;;5040852;28;20470;-65
2022/12/10 10:28:22;;;;;;;53.42;20.25;;;1.80;99.90;;;;;;5040876;28;20087;-65
2022/12/10 10:30:50;;;;;;;52.85;21.05;;;1.90;99.90;;;;;;5047481;28;20036;-66
2022/12/10 10:33:16;;;;;;;50.28;19.23;;;1.90;99.90;;;;;;5043213;28;20478;-64
2022/12/10 10:35:48;;;;;;;48.83;20.73;;;1.90;99.90;;;;;;5046557;28;20078;-64
2022/12/10 10:38:22;;;;;;;61.72;25.88;;;1.90;99.90;;;;;;5046213;28;20043;-64
2022/12/10 10:40:58;;;;;;;57.25;21.08;;;1.90;99.90;;;;;;5042189;28;20045;-66
2022/12/10 10:43:26;;;;;;;46.00;19.75;;;1.90;99.90;;;;;;5032146;28;20075;-62
2022/12/10 10:45:58;;;;;;;52.53;20.75;;;2.00;99.90;;;;;;5036340;28;20134;-64
2022/12/10 10:48:26;;;;;;;52.08;21.00;;;2.10;99.90;;;;;;5042753;28;20500;-63
2022/12/10 10:51:11;;;;;;;51.70;21.52;;;2.00;99.90;;;;;;5037407;28;20421;-65
2022/12/10 10:53:46;;;;;;;50.22;19.85;;;2.10;99.90;;;;;;5025653;28;20033;-64
2022/12/10 10:56:22;;;;;;;50.75;20.55;;;2.10;99.90;;;;;;5029117;28;20037;-65
2022/12/10 10:58:53;;;;;;;52.10;20.58;;;2.20;99.90;;;;;;5030228;28;20493;-64
2022/12/10 11:01:19;;;;;;;51.40;20.40;;;2.20;99.90;;;;;;5031054;28;20115;-65
2022/12/10 11:03:48;;;;;;;47.10;18.73;;;2.30;99.90;;;;;;5043336;28;20053;-66
2022/12/10 11:06:14;;;;;;;49.88;19.80;;;2.30;99.90;;;;;;5034381;28;20026;-64
2022/12/10 11:08:43;;;;;;;47.58;19.50;;;2.30;99.90;;;;;;5045675;28;20037;-64
2022/12/10 11:11:20;;;;;;;53.25;22.42;;;2.30;99.90;;;;;;5045343;28;20072;-65
2022/12/10 11:13:49;;;;;;;51.17;19.27;;;2.40;99.90;;;;;;5041241;28;20048;-65
2022/12/10 11:16:15;;;;;;;51.97;20.63;;;2.30;99.90;;;;;;5047036;28;20048;-64
2022/12/10 11:19:11;;;;;;;47.65;20.33;;;2.30;99.90;;;;;;5036315;28;20053;-64
2022/12/10 11:21:38;;;;;;;46.67;19.30;;;2.30;99.90;;;;;;5020939;28;20111;-64
2022/12/10 11:24:11;;;;;;;69.22;30.08;;;2.40;99.90;;;;;;5035952;28;20106;-64
2022/12/10 11:27:01;;;;;;;52.50;21.40;;;2.40;99.90;;;;;;5030413;28;20454;-65
2022/12/10 11:29:58;;;;;;;49.93;20.27;;;2.40;99.90;;;;;;5029911;28;20168;-65
2022/12/10 11:32:52;;;;;;;55.30;20.35;;;2.40;99.90;;;;;;5031417;28;20034;-69
2022/12/10 11:35:43;;;;;;;54.28;20.40;;;2.40;99.90;;;;;;5049912;28;20783;-64
2022/12/10 11:38:30;;;;;;;56.03;22.17;;;2.40;99.90;;;;;;5050322;28;20450;-64
2022/12/10 11:41:01;;;;;;;54.13;21.48;;;2.40;99.90;;;;;;5051277;28;20051;-63
2022/12/10 11:43:36;;;;;;;51.75;21.63;;;2.40;99.90;;;;;;5041697;28;20033;-64
2022/12/10 11:46:05;;;;;;;50.65;20.52;;;2.40;99.90;;;;;;5047007;28;20104;-63
2022/12/10 11:48:40;;;;;;;49.25;20.23;;;2.50;99.90;;;;;;5046503;28;21563;-63
2022/12/10 11:51:40;;;;;;;48.53;20.08;;;2.50;99.90;;;;;;5038657;28;20068;-65
2022/12/10 11:54:21;;;;;;;53.60;21.35;;;2.40;99.90;;;;;;5021183;28;20045;-65
2022/12/10 11:56:50;;;;;;;;;;;2.40;99.90;;;;;;5029298;28;20041;-64
2022/12/10 11:59:26;;;;;;;51.75;21.13;;;2.40;99.90;;;;;;5039136;28;19913;-63
2022/12/10 12:01:55;;;;;;;55.53;21.92;;;2.30;99.90;;;;;;5049369;28;20028;-64
2022/12/10 12:04:50;;;;;;;52.65;21.83;;;2.30;99.90;;;;;;5038515;28;20036;-65
2022/12/10 12:07:53;;;;;;;54.45;21.63;;;2.40;99.90;;;;;;5038951;28;20050;-65
2022/12/10 12:10:39;;;;;;;50.25;21.70;;;2.40;99.90;;;;;;5048389;28;20033;-63
2022/12/10 12:13:20;;;;;;;54.78;22.00;;;2.40;99.90;;;;;;5038986;28;20021;-65
2022/12/10 12:15:50;;;;;;;56.97;21.83;;;2.40;99.90;;;;;;5025394;28;20025;-65
2022/12/10 12:18:23;;;;;;;55.88;21.80;;;2.40;99.90;;;;;;5020730;28;20103;-65
2022/12/10 12:20:54;;;;;;;53.25;21.83;;;2.30;99.90;;;;;;5049655;28;20044;-66
2022/12/10 12:23:25;;;;;;;55.05;21.77;;;2.30;99.90;;;;;;5037360;28;20048;-64
2022/12/10 12:26:02;;;;;;;;;;;2.20;99.90;;;;;;5047692;28;20029;-65
2022/12/10 12:28:34;;;;;;;52.70;21.05;;;2.30;99.90;;;;;;5045732;28;21506;-66
2022/12/10 12:31:13;;;;;;;54.17;21.42;;;2.30;99.90;;;;;;5039484;28;20112;-64
2022/12/10 12:33:53;;;;;;;56.25;20.55;;;2.30;99.90;;;;;;5042671;28;20051;-65
2022/12/10 12:36:29;;;;;;;52.42;21.95;;;2.30;99.90;;;;;;5032690;28;20568;-66
2022/12/10 12:39:15;;;;;;;53.90;20.50;;;2.40;99.90;;;;;;5033552;28;20029;-62
2022/12/10 12:42:01;;;;;;;57.38;21.38;;;2.40;99.90;;;;;;5039939;28;20120;-65
2022/12/10 12:44:51;;;;;;;59.22;22.75;;;2.40;99.90;;;;;;5035350;28;20048;-68
2022/12/10 12:47:43;;;;;;;53.80;22.80;;;2.40;99.90;;;;;;5038925;28;20052;-65
2022/12/10 12:50:42;;;;;;;59.65;23.38;;;2.40;99.90;;;;;;5049998;28;20041;-65
2022/12/10 12:53:12;;;;;;;57.88;23.92;;;2.40;99.90;;;;;;5050316;28;20075;-65
2022/12/10 12:55:59;;;;;;;66.63;24.38;;;2.40;99.90;;;;;;5049460;28;20096;-65
2022/12/10 12:58:41;;;;;;;61.33;23.83;;;2.30;99.90;;;;;;5048584;28;20033;-64
2022/12/10 13:01:49;;;;;;;59.17;23.05;;;2.20;99.90;;;;;;5049660;28;20037;-66
2022/12/10 13:04:16;;;;;;;53.85;22.35;;;2.20;99.90;;;;;;5049758;28;20036;-64
2022/12/10 13:06:45;;;;;;;54.50;22.02;;;2.20;99.90;;;;;;5048936;28;20596;-65